createdAt,value
2023-04-27T06:49:02.300Z,4.81
2023-04-27T11:10:23.124Z,18.67
2023-04-27T11:12:51.448Z,19.53
2023-04-27T11:15:19.837Z,19.37
2023-04-27T11:17:48.261Z,18.94
2023-04-27T11:20:24.256Z,18.04
2023-04-27T11:22:51.916Z,16.09
2023-04-27T11:36:47.670Z,16.25
2023-04-27T11:42:39.296Z,20.48
2023-04-27T11:45:15.182Z,19.67
2023-04-27T11:50:32.849Z,18.60
2023-04-27T11:55:47.694Z,19.18
2023-04-27T11:58:19.724Z,20.38
2023-04-27T12:00:47.789Z,23.05
2023-04-27T12:08:37.669Z,25.39
2023-04-27T12:11:05.691Z,26.47
2023-04-27T12:13:42.030Z,27.39
2023-04-27T12:16:13.574Z,28.43
2023-04-27T12:18:41.361Z,29.23
2023-04-27T12:21:08.816Z,30.19
2023-04-27T12:23:37.522Z,30.84
2023-04-27T12:26:14.382Z,31.30
2023-04-27T12:28:42.151Z,29.98
2023-04-27T12:31:09.276Z,28.25
2023-04-27T12:33:36.550Z,28.08
2023-04-27T12:36:03.797Z,27.68
2023-04-27T12:38:31.056Z,26.72
2023-04-27T12:40:59.501Z,27.33
2023-04-27T12:43:27.000Z,29.11
2023-04-27T12:45:54.132Z,29.96
2023-04-27T12:48:23.128Z,30.63
2023-04-27T12:50:50.343Z,30.50
2023-04-27T12:53:17.328Z,29.21
2023-04-27T12:55:44.289Z,27.71
2023-04-27T12:58:11.236Z,27.53
2023-04-27T13:00:40.534Z,26.49
2023-04-27T13:03:08.174Z,25.75
2023-04-27T13:05:36.104Z,25.69
2023-04-27T13:08:06.293Z,25.20
2023-04-27T13:10:33.390Z,24.72
2023-04-27T13:13:00.352Z,25.10
2023-04-27T13:15:27.299Z,24.64
2023-04-27T13:17:54.637Z,23.81
2023-04-27T13:20:21.926Z,22.87
2023-04-27T13:22:48.767Z,21.99
2023-04-27T13:25:16.883Z,22.04
2023-04-27T13:27:44.017Z,22.04
2023-04-27T13:30:10.962Z,21.83
2023-04-27T13:32:38.400Z,21.38
2023-04-27T13:35:07.950Z,21.65
2023-04-27T13:37:35.398Z,21.46
2023-04-27T13:40:03.369Z,21.41
2023-04-27T13:42:30.356Z,21.41
2023-04-27T13:44:58.137Z,21.70
2023-04-27T13:47:26.811Z,20.40
2023-04-27T13:49:54.378Z,20.33
2023-04-27T13:52:29.559Z,20.34
2023-04-27T13:54:57.581Z,20.80
2023-04-27T13:57:24.904Z,21.46
2023-04-27T14:02:32.995Z,21.57
2023-04-27T14:05:01.043Z,19.76
2023-04-27T14:07:28.022Z,18.47
2023-04-27T14:09:54.863Z,18.72
2023-04-27T14:12:21.799Z,19.84
2023-04-27T14:14:50.471Z,19.88
2023-04-27T14:17:17.541Z,19.88
2023-04-27T14:19:44.468Z,19.63
2023-04-27T14:22:11.714Z,19.60
2023-04-27T14:24:38.939Z,19.54
2023-04-27T14:27:06.012Z,19.10
2023-04-27T14:29:33.547Z,19.70
2023-04-27T14:42:53.606Z,18.10
2023-04-27T14:48:01.829Z,17.42
2023-04-27T14:50:30.980Z,17.68
2023-04-27T14:55:41.863Z,18.23
2023-04-27T15:00:59.258Z,18.08
2023-04-27T15:03:28.088Z,18.21
2023-04-27T15:11:26.343Z,19.04
2023-04-27T15:16:35.565Z,18.87
2023-04-27T15:21:45.161Z,17.87
2023-04-27T15:24:16.131Z,17.97
2023-04-27T16:01:30.016Z,16.56
2023-04-27T16:17:29.964Z,15.47
2023-04-27T16:28:08.435Z,14.04
2023-04-27T16:33:17.881Z,13.62
2023-04-27T16:35:49.350Z,13.33
